createdAt,value
2018-09-27T00:01:14.194Z,11.70
2018-09-27T00:03:41.593Z,11.60
2018-09-27T00:06:09.253Z,11.60
2018-09-27T00:08:36.632Z,11.60
2018-09-27T00:11:04.016Z,11.60
2018-09-27T00:13:31.437Z,11.60
2018-09-27T00:15:58.840Z,11.60
2018-09-27T00:18:26.301Z,11.60
2018-09-27T00:20:53.682Z,11.60
2018-09-27T00:23:21.057Z,11.60
2018-09-27T00:25:48.469Z,11.70
2018-09-27T00:28:15.864Z,11.70
2018-09-27T00:30:43.297Z,11.60
2018-09-27T00:33:10.836Z,11.60
2018-09-27T00:35:38.247Z,11.60
2018-09-27T00:38:05.661Z,11.50
2018-09-27T00:40:33.072Z,11.50
2018-09-27T00:43:00.500Z,11.40
2018-09-27T00:45:27.943Z,11.40
2018-09-27T00:47:55.324Z,11.40
2018-09-27T00:50:22.772Z,11.40
2018-09-27T00:52:50.148Z,11.40
2018-09-27T00:55:17.533Z,11.40
2018-09-27T00:57:45.069Z,11.40
2018-09-27T01:00:12.493Z,11.40
2018-09-27T01:02:39.924Z,11.30
2018-09-27T01:05:07.128Z,11.40
2018-09-27T01:07:34.559Z,11.40
2018-09-27T01:10:02.029Z,11.40
2018-09-27T01:12:29.433Z,11.40
2018-09-27T01:14:56.844Z,11.40
2018-09-27T01:17:24.256Z,11.40
2018-09-27T01:19:51.685Z,11.40
2018-09-27T01:22:19.075Z,11.40
2018-09-27T01:24:46.518Z,11.50
2018-09-27T01:27:13.921Z,11.50
2018-09-27T01:29:41.324Z,11.40
2018-09-27T01:32:08.761Z,11.40
2018-09-27T01:34:36.161Z,11.40
2018-09-27T01:37:03.590Z,11.40
2018-09-27T01:39:31.048Z,11.40
2018-09-27T01:41:58.462Z,11.40
2018-09-27T01:44:25.890Z,11.40
2018-09-27T01:46:53.302Z,11.40
2018-09-27T01:49:20.741Z,11.40
2018-09-27T01:51:48.161Z,11.40
2018-09-27T01:54:15.610Z,11.40
2018-09-27T01:56:43.011Z,11.40
2018-09-27T01:59:10.474Z,11.40
2018-09-27T02:01:37.873Z,11.30
2018-09-27T02:04:05.334Z,11.30
2018-09-27T02:06:32.743Z,11.30
2018-09-27T02:09:00.160Z,11.30
2018-09-27T02:11:27.682Z,11.30
2018-09-27T02:13:55.080Z,11.30
2018-09-27T02:16:22.465Z,11.30
2018-09-27T02:18:49.908Z,11.30
2018-09-27T02:21:17.314Z,11.30
2018-09-27T02:23:44.853Z,11.40
2018-09-27T02:26:12.312Z,11.40
2018-09-27T02:28:39.720Z,11.40
2018-09-27T02:31:07.174Z,11.40
2018-09-27T02:33:34.569Z,11.40
2018-09-27T02:36:01.956Z,11.40
2018-09-27T02:38:29.392Z,11.40
2018-09-27T02:40:56.801Z,11.40
2018-09-27T02:43:24.301Z,11.40
2018-09-27T02:45:51.773Z,11.30
2018-09-27T02:48:19.180Z,11.30
2018-09-27T02:50:46.627Z,11.30
2018-09-27T02:53:14.006Z,11.30
2018-09-27T02:55:41.422Z,11.30
2018-09-27T02:58:08.904Z,11.20
2018-09-27T03:00:36.325Z,11.30
2018-09-27T03:03:03.773Z,11.20
2018-09-27T03:05:31.188Z,11.30
2018-09-27T03:07:58.573Z,11.20
2018-09-27T03:10:26.167Z,11.20
2018-09-27T03:12:53.574Z,11.30
2018-09-27T03:15:20.986Z,11.20
2018-09-27T03:17:48.469Z,11.20
2018-09-27T03:20:15.857Z,11.30
2018-09-27T03:22:43.249Z,11.30
2018-09-27T03:25:10.700Z,11.30
2018-09-27T03:27:38.117Z,11.30
2018-09-27T03:30:05.580Z,11.20
2018-09-27T03:32:32.984Z,11.20
2018-09-27T03:35:00.430Z,11.10
2018-09-27T03:37:27.829Z,11.10
2018-09-27T03:39:55.251Z,11.10
2018-09-27T03:42:22.680Z,11.10
2018-09-27T03:44:50.082Z,11.10
2018-09-27T03:47:17.540Z,11.00
2018-09-27T03:49:44.941Z,11.00
2018-09-27T03:52:12.329Z,11.00
2018-09-27T03:54:39.750Z,10.90
2018-09-27T03:57:07.180Z,10.90
2018-09-27T03:59:34.632Z,10.90
2018-09-27T04:02:02.017Z,10.80
2018-09-27T04:04:29.423Z,10.80
2018-09-27T04:06:56.831Z,10.70
2018-09-27T04:09:24.297Z,10.70
2018-09-27T04:11:51.666Z,10.70
2018-09-27T04:14:19.125Z,10.70
2018-09-27T04:16:46.537Z,10.70
2018-09-27T04:19:13.941Z,10.60
2018-09-27T04:21:41.440Z,10.60
2018-09-27T04:24:08.887Z,10.60
2018-09-27T04:26:36.236Z,10.50
2018-09-27T04:29:03.687Z,10.60
2018-09-27T04:31:31.092Z,10.60
2018-09-27T04:33:58.523Z,10.60
2018-09-27T04:36:25.917Z,10.60
2018-09-27T04:38:53.383Z,10.60
2018-09-27T04:41:20.767Z,10.50
2018-09-27T04:43:48.224Z,10.50
2018-09-27T04:46:15.642Z,10.60
2018-09-27T04:48:43.044Z,10.60
2018-09-27T04:51:10.480Z,10.50
2018-09-27T04:53:37.973Z,10.50
2018-09-27T04:56:05.527Z,10.50
2018-09-27T04:58:32.937Z,10.40
2018-09-27T05:01:00.341Z,10.40
2018-09-27T05:03:27.818Z,10.40
2018-09-27T05:05:55.228Z,10.40
2018-09-27T05:08:22.684Z,10.40
2018-09-27T05:10:50.102Z,10.40
2018-09-27T05:13:17.488Z,10.40
2018-09-27T05:15:44.963Z,10.30
2018-09-27T05:18:12.338Z,10.20
2018-09-27T05:20:39.738Z,10.30
2018-09-27T05:23:07.174Z,10.20
2018-09-27T05:25:34.585Z,10.20
2018-09-27T05:28:01.966Z,10.10
2018-09-27T05:30:29.406Z,10.10
2018-09-27T05:32:56.863Z,10.20
2018-09-27T05:35:24.298Z,10.20
2018-09-27T05:37:51.737Z,10.20
2018-09-27T05:40:19.201Z,10.20
2018-09-27T05:42:46.601Z,10.30
2018-09-27T05:45:14.048Z,10.20
2018-09-27T05:47:41.491Z,10.30
2018-09-27T05:50:09.001Z,10.20
2018-09-27T05:52:36.683Z,10.20
2018-09-27T05:55:04.103Z,10.20
2018-09-27T05:57:31.488Z,10.20
2018-09-27T05:59:59.025Z,10.30
2018-09-27T06:02:26.425Z,10.30
2018-09-27T06:04:53.838Z,10.30
2018-09-27T06:07:21.269Z,10.30
2018-09-27T06:09:48.683Z,10.40
2018-09-27T06:12:16.101Z,10.30
2018-09-27T06:14:43.532Z,10.30
2018-09-27T06:17:10.918Z,10.40
2018-09-27T06:19:38.349Z,10.40
2018-09-27T06:22:05.785Z,10.40
2018-09-27T06:24:33.206Z,10.40
2018-09-27T06:27:00.666Z,10.50
2018-09-27T06:29:28.133Z,10.50
2018-09-27T06:31:55.545Z,10.50
2018-09-27T06:34:22.965Z,10.60
2018-09-27T06:36:50.392Z,10.70
2018-09-27T06:39:17.849Z,10.80
2018-09-27T06:41:45.243Z,10.90
2018-09-27T06:44:12.669Z,11.10
2018-09-27T06:46:40.106Z,11.20
2018-09-27T06:49:07.493Z,11.30
2018-09-27T06:51:34.900Z,11.30
2018-09-27T06:54:02.337Z,11.40
2018-09-27T06:56:29.753Z,11.50
2018-09-27T06:58:57.219Z,11.60
2018-09-27T07:01:24.670Z,11.60
2018-09-27T07:03:52.087Z,11.70
2018-09-27T07:06:19.574Z,11.70
2018-09-27T07:08:47.088Z,11.80
2018-09-27T07:11:14.493Z,11.80
2018-09-27T07:13:41.867Z,11.90
2018-09-27T07:16:09.322Z,12.00
2018-09-27T07:18:36.776Z,12.10
2018-09-27T07:21:04.153Z,12.00
2018-09-27T07:23:31.619Z,12.10
2018-09-27T07:25:59.006Z,12.20
2018-09-27T07:28:26.411Z,12.10
2018-09-27T07:30:53.837Z,12.00
2018-09-27T07:33:21.576Z,12.10
2018-09-27T07:35:49.008Z,12.10
2018-09-27T07:38:16.486Z,12.10
2018-09-27T07:40:43.873Z,12.10
2018-09-27T07:43:11.405Z,12.10
2018-09-27T07:45:38.810Z,12.10
2018-09-27T07:48:06.294Z,12.20
2018-09-27T07:50:33.677Z,12.20
2018-09-27T07:53:01.108Z,12.20
2018-09-27T07:55:28.531Z,12.30
2018-09-27T07:57:55.908Z,12.40
2018-09-27T08:00:23.320Z,12.50
2018-09-27T08:02:50.902Z,12.80
2018-09-27T08:05:18.296Z,12.90
2018-09-27T08:07:45.730Z,13.10
2018-09-27T08:10:13.112Z,13.30
2018-09-27T08:12:40.526Z,13.40
2018-09-27T08:15:07.928Z,13.50
2018-09-27T08:17:35.364Z,13.60
2018-09-27T08:20:02.940Z,13.70
2018-09-27T08:22:30.321Z,13.70
2018-09-27T08:24:57.732Z,13.60
2018-09-27T08:27:25.165Z,13.70
2018-09-27T08:29:52.666Z,13.80
2018-09-27T08:32:20.094Z,13.80
2018-09-27T08:34:47.480Z,13.80
2018-09-27T08:37:14.891Z,13.90
2018-09-27T08:39:42.294Z,13.80
2018-09-27T08:42:09.720Z,13.60
2018-09-27T08:44:37.298Z,13.50
2018-09-27T08:47:04.580Z,13.50
2018-09-27T08:49:31.998Z,13.50
2018-09-27T08:51:59.434Z,13.50
2018-09-27T08:54:26.874Z,13.50
2018-09-27T08:56:54.265Z,13.50
2018-09-27T08:59:21.685Z,13.50
2018-09-27T09:01:49.137Z,13.40
2018-09-27T09:04:16.548Z,13.30
2018-09-27T09:06:44.015Z,13.20
2018-09-27T09:09:12.504Z,13.20
2018-09-27T09:11:39.942Z,13.10
2018-09-27T09:14:07.649Z,13.20
2018-09-27T09:16:35.089Z,13.30
2018-09-27T09:19:02.505Z,13.40
2018-09-27T09:21:29.938Z,13.30
2018-09-27T09:23:57.351Z,13.40
2018-09-27T09:26:24.753Z,13.50
2018-09-27T09:28:52.160Z,13.50
2018-09-27T09:31:19.578Z,13.60
2018-09-27T09:33:46.995Z,13.70
2018-09-27T09:36:14.469Z,13.80
2018-09-27T09:38:41.917Z,13.90
2018-09-27T09:41:09.365Z,13.90
2018-09-27T09:43:36.823Z,13.90
2018-09-27T09:46:04.270Z,13.90
2018-09-27T09:48:31.648Z,13.70
2018-09-27T09:50:59.143Z,13.70
2018-09-27T09:53:26.524Z,13.60
2018-09-27T09:55:53.936Z,13.50
2018-09-27T09:58:21.344Z,13.50
2018-09-27T10:00:48.745Z,13.40
2018-09-27T10:03:16.214Z,13.30
2018-09-27T10:05:43.648Z,13.30
2018-09-27T10:08:11.032Z,13.30
2018-09-27T10:10:38.465Z,13.30
2018-09-27T10:13:05.881Z,13.30
2018-09-27T10:15:33.328Z,13.30
2018-09-27T10:18:00.742Z,13.10
2018-09-27T10:20:28.136Z,13.00
2018-09-27T10:22:55.558Z,13.00
2018-09-27T10:25:22.947Z,13.00
2018-09-27T10:27:50.409Z,13.00
2018-09-27T10:30:17.802Z,12.90
2018-09-27T10:32:45.233Z,12.90
2018-09-27T10:35:12.665Z,12.90
2018-09-27T10:37:40.094Z,12.80
2018-09-27T10:40:07.494Z,12.60
2018-09-27T10:42:34.975Z,12.60
2018-09-27T10:45:02.513Z,12.60
2018-09-27T10:47:29.861Z,12.70
2018-09-27T10:49:57.274Z,12.70
2018-09-27T10:52:24.688Z,12.70
2018-09-27T10:54:52.129Z,12.70
2018-09-27T10:57:20.158Z,12.80
2018-09-27T10:59:47.723Z,12.90
2018-09-27T11:02:15.020Z,12.80
2018-09-27T11:04:42.526Z,13.00
2018-09-27T11:07:10.002Z,13.10
2018-09-27T11:09:37.386Z,13.20
2018-09-27T11:12:04.784Z,13.20
2018-09-27T11:14:32.229Z,13.30
2018-09-27T11:16:59.645Z,13.30
2018-09-27T11:19:27.052Z,13.40
2018-09-27T11:21:54.567Z,13.50
2018-09-27T11:24:21.913Z,13.50
2018-09-27T11:26:49.345Z,13.60
2018-09-27T11:29:22.381Z,13.60
2018-09-27T11:31:55.430Z,13.70
2018-09-27T11:34:23.348Z,13.70
2018-09-27T11:36:50.738Z,13.70
2018-09-27T11:39:18.156Z,13.70
2018-09-27T11:41:45.538Z,13.70
2018-09-27T11:44:13.002Z,13.70
2018-09-27T11:46:40.452Z,13.80
2018-09-27T11:49:07.950Z,13.90
2018-09-27T11:51:35.259Z,13.90
2018-09-27T11:54:02.725Z,14.00
2018-09-27T11:56:30.119Z,14.00
2018-09-27T11:58:57.530Z,14.00
2018-09-27T12:01:24.996Z,14.10
2018-09-27T12:03:52.563Z,14.10
2018-09-27T12:06:20.010Z,14.20
2018-09-27T12:08:47.425Z,14.30
2018-09-27T12:11:14.882Z,14.30
2018-09-27T12:13:44.409Z,14.40
2018-09-27T12:16:11.982Z,14.40
2018-09-27T12:18:39.549Z,14.40
2018-09-27T12:21:07.025Z,14.40
2018-09-27T12:23:34.472Z,14.40
2018-09-27T12:26:01.952Z,14.40
2018-09-27T12:28:29.420Z,14.50
2018-09-27T12:30:56.865Z,14.60
2018-09-27T12:33:24.278Z,14.60
2018-09-27T12:35:51.773Z,14.70
2018-09-27T12:38:19.204Z,14.80
2018-09-27T12:40:46.720Z,15.00
2018-09-27T12:43:14.105Z,15.10
2018-09-27T12:45:41.568Z,15.10
2018-09-27T12:48:09.055Z,15.10
2018-09-27T12:50:37.224Z,15.20
2018-09-27T12:53:04.816Z,15.30
2018-09-27T12:55:32.290Z,15.40
2018-09-27T12:57:59.708Z,15.40
2018-09-27T13:00:27.097Z,15.40
2018-09-27T13:02:54.593Z,15.50
2018-09-27T13:05:21.985Z,15.60
2018-09-27T13:07:49.421Z,15.80
2018-09-27T13:10:16.852Z,15.90
2018-09-27T13:12:44.314Z,16.00
2018-09-27T13:15:11.759Z,16.00
2018-09-27T13:17:39.160Z,16.00
2018-09-27T13:20:06.609Z,16.20
2018-09-27T13:22:34.017Z,16.20
2018-09-27T13:25:01.529Z,16.20
2018-09-27T13:27:28.911Z,16.10
2018-09-27T13:29:56.323Z,16.00
2018-09-27T13:32:23.721Z,15.90
2018-09-27T13:34:51.189Z,15.80
2018-09-27T13:37:18.573Z,15.90
2018-09-27T13:39:46.004Z,15.80
2018-09-27T13:42:13.457Z,15.80
2018-09-27T13:44:40.862Z,15.80
2018-09-27T13:47:08.291Z,15.70
2018-09-27T13:49:35.743Z,15.70
2018-09-27T13:52:03.165Z,15.70
2018-09-27T13:54:30.612Z,15.70
2018-09-27T13:56:58.103Z,15.80
2018-09-27T13:59:25.477Z,15.80
2018-09-27T14:01:52.880Z,15.90
2018-09-27T14:04:20.292Z,16.00
2018-09-27T14:06:47.692Z,16.10
2018-09-27T14:09:15.088Z,16.10
2018-09-27T14:11:42.528Z,16.10
2018-09-27T14:14:10.033Z,16.10
2018-09-27T14:16:37.418Z,16.10
2018-09-27T14:19:04.841Z,16.10
2018-09-27T14:21:32.409Z,16.00
2018-09-27T14:23:59.910Z,15.90
2018-09-27T14:26:27.315Z,15.80
2018-09-27T14:28:54.774Z,15.80
2018-09-27T14:31:22.186Z,15.80
2018-09-27T14:33:49.621Z,15.90
2018-09-27T14:36:17.021Z,15.90
2018-09-27T14:38:44.505Z,15.90
2018-09-27T14:41:11.913Z,15.90
2018-09-27T14:43:39.345Z,15.90
2018-09-27T14:46:06.915Z,15.80
2018-09-27T14:48:34.337Z,15.80
2018-09-27T14:51:01.772Z,15.80
2018-09-27T14:53:29.252Z,15.70
2018-09-27T14:55:56.619Z,15.80
2018-09-27T14:58:24.057Z,15.80
2018-09-27T15:00:51.457Z,15.80
2018-09-27T15:03:18.881Z,15.90
2018-09-27T15:05:46.317Z,15.80
2018-09-27T15:08:13.730Z,15.90
2018-09-27T15:10:41.213Z,15.80
2018-09-27T15:13:08.638Z,15.80
2018-09-27T15:15:36.053Z,15.80
2018-09-27T15:18:03.656Z,15.90
2018-09-27T15:20:31.069Z,15.80
2018-09-27T15:22:58.479Z,15.90
2018-09-27T15:25:25.913Z,15.80
2018-09-27T15:27:53.302Z,15.80
2018-09-27T15:30:20.724Z,15.80
2018-09-27T15:32:48.124Z,15.80
2018-09-27T15:35:15.713Z,15.90
2018-09-27T15:37:43.179Z,15.90
2018-09-27T15:40:10.646Z,15.90
2018-09-27T15:42:38.103Z,15.90
2018-09-27T15:45:05.619Z,15.80
2018-09-27T15:47:33.019Z,15.80
2018-09-27T15:50:00.494Z,15.80
2018-09-27T15:52:27.900Z,15.70
2018-09-27T15:54:55.294Z,15.70
2018-09-27T15:57:22.781Z,15.60
2018-09-27T15:59:50.226Z,15.60
2018-09-27T16:02:17.629Z,15.60
2018-09-27T16:04:45.141Z,15.60
2018-09-27T16:07:12.520Z,15.60
2018-09-27T16:09:39.996Z,15.50
2018-09-27T16:12:07.430Z,15.50
2018-09-27T16:14:34.839Z,15.50
2018-09-27T16:17:02.322Z,15.40
2018-09-27T16:19:29.751Z,15.40
2018-09-27T16:21:57.157Z,15.40
2018-09-27T16:24:24.589Z,15.40
2018-09-27T16:26:51.998Z,15.40
2018-09-27T16:29:19.416Z,15.40
2018-09-27T16:31:46.841Z,15.30
2018-09-27T16:34:14.249Z,15.30
2018-09-27T16:36:41.767Z,15.30
2018-09-27T16:39:09.923Z,15.30
2018-09-27T16:41:37.663Z,15.30
2018-09-27T16:44:05.135Z,15.30
2018-09-27T16:46:32.585Z,15.20
2018-09-27T16:49:00.232Z,15.20
2018-09-27T16:51:27.656Z,15.20
2018-09-27T16:53:55.069Z,15.20
2018-09-27T16:56:22.521Z,15.20
2018-09-27T16:58:49.936Z,15.20
2018-09-27T17:01:17.325Z,15.10
2018-09-27T17:03:44.916Z,15.10
2018-09-27T17:06:12.305Z,15.10
2018-09-27T17:08:39.732Z,15.10
2018-09-27T17:13:45.788Z,15.10
2018-09-27T17:16:13.217Z,15.10
2018-09-27T17:18:40.649Z,15.10
2018-09-27T17:21:08.081Z,15.10
2018-09-27T17:23:35.490Z,15.10
2018-09-27T17:26:02.921Z,15.10
2018-09-27T17:28:30.366Z,15.10
2018-09-27T17:30:57.769Z,15.10
2018-09-27T17:33:25.204Z,15.10
2018-09-27T17:35:52.611Z,15.00
2018-09-27T17:38:20.022Z,15.10
2018-09-27T17:40:47.525Z,15.10
2018-09-27T17:43:14.893Z,15.10
2018-09-27T17:45:42.323Z,15.10
2018-09-27T17:48:09.767Z,15.10
2018-09-27T17:50:37.176Z,15.10
2018-09-27T17:53:04.701Z,15.10
2018-09-27T17:55:32.144Z,15.00
2018-09-27T17:57:59.574Z,15.00
2018-09-27T18:00:27.105Z,15.10
2018-09-27T18:02:54.524Z,15.10
2018-09-27T18:06:17.909Z,15.10
2018-09-27T18:08:45.406Z,15.10
2018-09-27T18:11:12.830Z,15.10
2018-09-27T18:13:40.308Z,15.10
2018-09-27T18:16:07.905Z,15.00
2018-09-27T18:18:35.318Z,15.00
2018-09-27T18:21:02.745Z,15.00
2018-09-27T18:23:30.239Z,14.90
2018-09-27T18:25:57.679Z,14.90
2018-09-27T18:28:25.120Z,14.90
2018-09-27T18:30:52.601Z,14.90
2018-09-27T18:33:20.001Z,14.90
2018-09-27T18:35:47.571Z,14.90
2018-09-27T18:38:15.155Z,14.90
2018-09-27T18:40:42.458Z,14.90
2018-09-27T18:43:09.939Z,14.80
2018-09-27T18:45:37.406Z,14.80
2018-09-27T18:48:04.972Z,14.80
2018-09-27T18:50:32.389Z,14.80
2018-09-27T18:52:59.849Z,14.70
2018-09-27T18:55:27.322Z,14.70
2018-09-27T18:57:54.777Z,14.70
2018-09-27T19:00:22.185Z,14.70
2018-09-27T19:02:49.601Z,14.70
2018-09-27T19:05:17.054Z,14.60
2018-09-27T19:07:44.449Z,14.70
2018-09-27T19:10:11.912Z,14.60
2018-09-27T19:12:39.322Z,14.60
2018-09-27T19:15:06.833Z,14.60
2018-09-27T19:17:34.275Z,14.60
2018-09-27T19:20:01.725Z,14.50
2018-09-27T19:22:29.164Z,14.40
2018-09-27T19:24:56.614Z,14.40
2018-09-27T19:27:24.044Z,14.30
2018-09-27T19:29:51.477Z,14.20
2018-09-27T19:32:18.929Z,14.10
2018-09-27T19:34:46.376Z,14.00
2018-09-27T19:37:13.789Z,13.90
2018-09-27T19:39:41.377Z,13.90
2018-09-27T19:42:08.808Z,13.90
2018-09-27T19:44:36.236Z,13.80
2018-09-27T19:47:03.699Z,13.70
2018-09-27T19:49:31.110Z,13.70
2018-09-27T19:51:58.570Z,13.60
2018-09-27T19:54:26.061Z,13.50
2018-09-27T19:56:53.481Z,13.50
2018-09-27T19:59:20.982Z,13.40
2018-09-27T20:01:48.401Z,13.40
2018-09-27T20:04:16.042Z,13.30
2018-09-27T20:06:43.523Z,13.30
2018-09-27T20:09:12.557Z,13.20
2018-09-27T20:11:40.156Z,13.20
2018-09-27T20:14:08.013Z,13.20
2018-09-27T20:16:35.454Z,13.20
2018-09-27T20:19:02.864Z,13.10
2018-09-27T20:21:30.341Z,13.10
2018-09-27T20:23:57.773Z,13.00
2018-09-27T20:26:25.188Z,13.00
2018-09-27T20:28:52.711Z,12.90
2018-09-27T20:31:20.114Z,12.90
2018-09-27T20:33:47.517Z,12.80
2018-09-27T20:36:15.009Z,12.70
2018-09-27T20:38:42.413Z,12.60
2018-09-27T20:41:09.843Z,12.50
2018-09-27T20:43:37.290Z,12.40
2018-09-27T20:46:04.813Z,12.30
2018-09-27T20:48:32.477Z,12.30
2018-09-27T20:50:59.930Z,12.20
2018-09-27T20:53:27.385Z,12.10
2018-09-27T20:55:54.941Z,12.10
2018-09-27T20:58:22.337Z,12.00
2018-09-27T21:00:49.752Z,12.00
2018-09-27T21:03:17.306Z,12.00
2018-09-27T21:05:47.542Z,12.00
2018-09-27T21:08:14.967Z,12.00
2018-09-27T21:10:42.431Z,11.90
2018-09-27T21:13:09.830Z,11.90
2018-09-27T21:15:37.299Z,11.90
2018-09-27T21:18:04.969Z,11.80
2018-09-27T21:20:32.386Z,11.70
2018-09-27T21:22:59.812Z,11.60
2018-09-27T21:25:27.257Z,11.30
2018-09-27T21:27:54.673Z,11.00
2018-09-27T21:30:22.165Z,10.90
2018-09-27T21:32:49.564Z,10.80
2018-09-27T21:35:17.002Z,10.60
2018-09-27T21:37:44.488Z,10.60
2018-09-27T21:40:11.901Z,10.50
2018-09-27T21:42:39.277Z,10.40
2018-09-27T21:45:06.740Z,10.40
2018-09-27T21:47:34.145Z,10.30
2018-09-27T21:50:01.694Z,10.30
2018-09-27T21:52:29.112Z,10.30
2018-09-27T21:54:56.516Z,10.20
2018-09-27T21:57:24.010Z,10.20
2018-09-27T21:59:51.466Z,10.10
2018-09-27T22:02:18.864Z,10.10
2018-09-27T22:04:46.354Z,10.10
2018-09-27T22:07:13.770Z,10.10
2018-09-27T22:09:41.213Z,10.00
2018-09-27T22:12:08.645Z,10.00
2018-09-27T22:14:36.132Z,10.00
2018-09-27T22:17:03.619Z,10.00
2018-09-27T22:19:31.043Z,9.90
2018-09-27T22:21:58.540Z,9.90
2018-09-27T22:24:25.949Z,9.80
2018-09-27T22:26:53.358Z,9.70
2018-09-27T22:29:20.778Z,9.70
2018-09-27T22:31:48.191Z,9.60
2018-09-27T22:34:15.626Z,9.60
2018-09-27T22:36:43.053Z,9.50
2018-09-27T22:39:10.435Z,9.50
2018-09-27T22:41:37.894Z,9.50
2018-09-27T22:44:05.347Z,9.40
2018-09-27T22:46:32.728Z,9.40
2018-09-27T22:49:00.183Z,9.40
2018-09-27T22:51:27.641Z,9.40
2018-09-27T22:53:55.135Z,9.50
2018-09-27T22:56:22.514Z,9.40
2018-09-27T22:58:49.961Z,9.40
2018-09-27T23:01:17.395Z,9.30
2018-09-27T23:03:44.876Z,9.20
2018-09-27T23:06:12.302Z,9.20
2018-09-27T23:08:39.730Z,9.20
2018-09-27T23:11:07.157Z,9.20
2018-09-27T23:13:34.733Z,9.20
2018-09-27T23:16:02.141Z,9.20
2018-09-27T23:18:29.597Z,9.20
2018-09-27T23:20:57.059Z,9.10
2018-09-27T23:23:24.486Z,9.10
2018-09-27T23:25:51.930Z,9.10
2018-09-27T23:28:19.431Z,9.00
2018-09-27T23:30:46.874Z,9.00
2018-09-27T23:33:14.275Z,8.90
2018-09-27T23:35:41.722Z,8.90
2018-09-27T23:38:09.116Z,8.90
2018-09-27T23:40:36.512Z,9.00
2018-09-27T23:43:03.981Z,9.00
2018-09-27T23:45:31.426Z,9.00
2018-09-27T23:47:59.025Z,9.00
2018-09-27T23:50:26.441Z,9.00
2018-09-27T23:52:53.857Z,9.00
2018-09-27T23:55:21.386Z,9.00
2018-09-27T23:57:48.853Z,9.00
